Time;durP1;ratioP1;P1;durP2;ratioP2;P2;SDS_P1;SDS_P2;PMS_P1;PMS_P2;Temp;Humidity;BMP_temperature;BMP_pressure;BME280_temperature;BME280_humidity;BME280_pressure;Samples;Min_cycle;Max_cycle;Signal;HPM_P1;HPM_P2
2023/04/01 00:01:22;;;;;;;;;1.00;1.00;;;;;12.52;64.13;99933.25;5016630;28;46217;-46
2023/04/01 00:03:48;;;;;;;;;1.00;0.00;;;;;12.54;64.25;99939.22;5017764;28;45390;-48
2023/04/01 00:06:16;;;;;;;;;1.00;0.67;;;;;12.53;64.17;99940.25;5002050;28;45371;-45
2023/04/01 00:08:41;;;;;;;;;0.00;0.00;;;;;12.57;63.85;99953.03;5020147;28;45422;-45
2023/04/01 00:11:06;;;;;;;;;1.33;0.00;;;;;12.57;64.73;99939.69;5019641;28;45409;-51
2023/04/01 00:13:32;;;;;;;;;0.00;0.00;;;;;12.58;64.66;99916.53;5019862;28;45441;-49
2023/04/01 00:15:57;;;;;;;;;0.00;0.00;;;;;12.54;65.57;99948.06;5019880;28;45445;-51
2023/04/01 00:18:24;;;;;;;;;1.00;0.00;;;;;12.55;64.82;99932.88;5019936;28;45360;-51
2023/04/01 00:20:52;;;;;;;;;0.00;0.00;;;;;12.56;64.20;99956.72;5019566;28;47019;-52
2023/04/01 00:23:18;;;;;;;;;1.67;0.00;;;;;12.59;64.96;99945.69;5019621;28;45390;-50
2023/04/01 00:25:45;;;;;;;;;1.67;1.00;;;;;12.61;64.44;99951.69;5019716;28;45468;-44
2023/04/01 00:28:10;;;;;;;;;0.00;0.00;;;;;12.62;64.14;99947.16;5019908;28;45524;-44
2023/04/01 00:30:36;;;;;;;;;0.00;0.00;;;;;12.48;64.91;99938.94;5019243;28;46255;-47
2023/04/01 00:33:02;;;;;;;;;0.67;0.00;;;;;12.57;65.54;99944.22;5019355;28;45366;-50
2023/04/01 00:35:28;;;;;;;;;1.00;0.00;;;;;12.54;65.01;99955.25;5019615;28;45419;-47
2023/04/01 00:37:54;;;;;;;;;0.00;0.00;;;;;12.53;65.06;99950.91;5019602;28;45392;-51
2023/04/01 00:40:35;;;;;;;;;1.67;0.67;;;;;12.52;64.68;99950.09;5019121;28;46136;-47
2023/04/01 00:43:01;;;;;;;;;2.33;1.00;;;;;12.56;65.04;99963.91;5019062;28;45336;-48
2023/04/01 00:45:29;;;;;;;;;1.00;1.00;;;;;12.56;65.21;99950.56;5019140;28;45401;-51
2023/04/01 00:47:56;;;;;;;;;0.00;0.00;;;;;12.57;65.34;99953.03;5019702;28;45262;-47
2023/04/01 00:50:26;;;;;;;;;0.00;0.00;;;;;12.58;65.62;99960.03;5019062;28;46262;-50
2023/04/01 00:52:52;;;;;;;;;0.00;0.00;;;;;12.46;64.95;99934.78;5018949;28;45362;-48
2023/04/01 00:55:20;;;;;;;;;0.00;0.00;;;;;12.58;64.61;99946.69;5019259;28;45432;-49
2023/04/01 00:57:48;;;;;;;;;1.00;1.00;;;;;12.58;65.20;99951.19;5019401;28;45292;-47
2023/04/01 01:00:15;;;;;;;;;0.00;0.00;;;;;12.48;64.78;99930.13;5019170;28;45462;-51
2023/04/01 01:02:42;;;;;;;;;1.00;0.00;;;;;12.56;65.25;99945.22;5018994;28;45456;-43
2023/04/01 01:05:12;;;;;;;;;2.00;0.00;;;;;12.50;65.19;99941.41;5018975;28;45313;-49
2023/04/01 01:08:04;;;;;;;;;3.00;0.00;;;;;12.55;65.14;99949.72;5019335;28;45439;-50
2023/04/01 01:10:38;;;;;;;;;0.00;0.00;;;;;12.57;64.91;99947.72;5017471;28;46139;-49
2023/04/01 01:13:15;;;;;;;;;0.00;0.00;;;;;12.53;65.12;99934.91;5018824;28;45357;-43
2023/04/01 01:15:49;;;;;;;;;0.00;0.00;;;;;12.51;65.22;99948.41;5018003;28;45474;-48
2023/04/01 01:18:53;;;;;;;;;0.00;0.00;;;;;12.51;65.54;99953.75;5018987;28;45407;-45
2023/04/01 01:21:43;;;;;;;;;0.00;0.00;;;;;12.51;66.22;99943.06;5018544;28;47044;-48
2023/04/01 01:24:08;;;;;;;;;2.00;0.00;;;;;12.51;66.22;99956.41;5018567;28;45324;-46
2023/04/01 01:26:52;;;;;;;;;0.67;0.67;;;;;12.48;66.43;99938.94;5018699;28;45689;-47
2023/04/01 01:29:45;;;;;;;;;0.00;0.00;;;;;12.46;65.89;99945.44;5018974;28;45536;-47
2023/04/01 01:32:56;;;;;;;;;1.00;0.33;;;;;12.44;65.89;99942.16;5018274;28;46417;-45
2023/04/01 01:35:33;;;;;;;;;2.00;0.00;;;;;12.43;65.42;99952.00;5003418;28;45353;-47
2023/04/01 01:38:02;;;;;;;;;3.00;0.00;;;;;12.41;66.14;99940.66;5018626;28;45359;-45
2023/04/01 01:40:31;;;;;;;;;0.00;0.00;;;;;12.39;65.81;99956.03;5018537;28;45238;-47
2023/04/01 01:43:02;;;;;;;;;0.00;0.00;;;;;12.42;65.97;99952.16;5018197;28;45743;-48
2023/04/01 01:45:31;;;;;;;;;2.00;0.00;;;;;12.35;66.02;99943.22;5018192;28;45467;-44
2023/04/01 01:48:00;;;;;;;;;1.00;1.00;;;;;12.43;67.01;99965.31;5018381;28;45424;-45
2023/04/01 01:50:26;;;;;;;;;0.00;0.00;;;;;12.42;66.15;99962.81;5018629;28;45494;-49
2023/04/01 01:53:04;;;;;;;;;0.33;0.33;;;;;12.38;67.08;99957.00;5018055;28;46184;-49
2023/04/01 01:55:35;;;;;;;;;2.00;0.00;;;;;12.33;67.53;99962.03;5018272;28;45275;-52
2023/04/01 01:58:11;;;;;;;;;0.00;0.00;;;;;12.33;67.42;99964.72;5018455;28;45297;-51
2023/04/01 02:00:37;;;;;;;;;0.00;0.00;;;;;12.31;68.49;99961.41;5018519;28;45266;-46
2023/04/01 02:03:04;;;;;;;;;1.33;0.00;;;;;12.24;67.34;99957.78;5018000;28;46335;-46
2023/04/01 02:05:31;;;;;;;;;0.00;0.00;;;;;12.31;68.23;99963.25;5018109;28;45410;-48
2023/04/01 02:08:27;;;;;;;;;3.00;0.33;;;;;12.27;68.45;99973.44;5018148;28;45470;-50
2023/04/01 02:11:00;;;;;;;;;0.00;0.00;;;;;12.26;68.62;99970.94;4956940;28;45441;-51
2023/04/01 02:13:35;;;;;;;;;0.33;0.33;;;;;12.22;68.17;99979.31;4956525;28;45380;-51
2023/04/01 02:16:08;;;;;;;;;3.00;0.00;;;;;12.23;67.50;99966.78;4956636;28;45461;-51
2023/04/01 02:18:38;;;;;;;;;0.33;0.33;;;;;12.23;68.08;99972.13;4956950;28;45375;-46
2023/04/01 02:21:05;;;;;;;;;2.00;1.00;;;;;12.22;67.99;99971.31;4956792;28;45475;-49
2023/04/01 02:23:35;;;;;;;;;0.00;0.00;;;;;12.22;67.98;99963.31;4956549;28;45386;-45
2023/04/01 02:26:02;;;;;;;;;0.00;0.00;;;;;12.23;67.83;99967.63;4956896;28;45364;-51
2023/04/01 02:28:31;;;;;;;;;2.00;2.00;;;;;12.24;68.41;99973.78;4956580;28;46208;-48
2023/04/01 02:31:00;;;;;;;;;2.33;0.00;;;;;12.24;67.12;99969.28;4956749;28;45516;-49
2023/04/01 02:33:27;;;;;;;;;0.00;0.00;;;;;12.22;67.64;99970.47;4956476;28;47089;-44
2023/04/01 02:35:53;;;;;;;;;3.00;1.00;;;;;11.92;67.54;99914.31;4956273;28;45499;-44
2023/04/01 02:38:18;;;;;;;;;1.67;0.00;;;;;12.16;66.77;99952.50;4956772;28;45821;-48
2023/04/01 02:40:49;;;;;;;;;0.67;0.00;;;;;12.27;66.86;99965.44;4956742;28;45323;-48
2023/04/01 02:43:16;;;;;;;;;0.00;0.00;;;;;12.27;66.56;99973.44;4956350;28;46120;-50
2023/04/01 02:45:41;;;;;;;;;0.00;0.00;;;;;12.28;66.41;99974.25;4956432;28;45549;-45
2023/04/01 02:48:06;;;;;;;;;0.00;0.00;;;;;12.28;66.41;99969.75;4999493;28;45400;-50
2023/04/01 02:50:32;;;;;;;;;1.33;1.00;;;;;12.27;66.14;99978.78;5017707;28;45491;-52
2023/04/01 02:52:57;;;;;;;;;2.67;0.67;;;;;12.26;65.85;99974.41;5017313;28;45640;-53
2023/04/01 02:55:23;;;;;;;;;5.67;1.67;;;;;12.17;66.68;99960.31;5017368;28;45340;-51
2023/04/01 02:57:48;;;;;;;;;0.67;0.00;;;;;12.29;66.37;99975.91;5017523;28;45347;-49
2023/04/01 03:00:14;;;;;;;;;0.00;0.00;;;;;12.31;65.70;99981.91;5017557;28;45571;-45
2023/04/01 03:02:39;;;;;;;;;0.67;0.00;;;;;12.32;65.78;99986.25;5017013;28;46276;-49
2023/04/01 03:05:05;;;;;;;;;1.00;0.00;;;;;12.27;65.52;99977.94;5017332;28;45415;-52
2023/04/01 03:07:31;;;;;;;;;1.00;0.00;;;;;12.28;65.48;99987.59;5017437;28;45254;-47
2023/04/01 03:09:56;;;;;;;;;1.33;0.67;;;;;12.28;65.32;99979.59;5017554;28;45344;-46
2023/04/01 03:12:22;;;;;;;;;0.00;0.00;;;;;12.20;65.14;99967.97;5016900;28;48106;-51
2023/04/01 03:14:47;;;;;;;;;0.00;0.00;;;;;12.27;65.23;99989.44;5017192;28;45237;-52
2023/04/01 03:17:12;;;;;;;;;0.00;0.00;;;;;12.27;65.16;99988.59;5017038;28;45340;-49
2023/04/01 03:19:38;;;;;;;;;0.00;0.00;;;;;12.28;65.01;100022.25;5017326;28;45211;-47
2023/04/01 03:22:03;;;;;;;;;0.00;0.00;;;;;12.28;65.26;99990.25;5017086;28;46032;-49
2023/04/01 03:24:28;;;;;;;;;0.00;0.00;;;;;12.26;65.29;99989.59;5016969;28;45210;-49
2023/04/01 03:26:54;;;;;;;;;1.67;0.00;;;;;12.24;65.32;99989.78;5017248;28;45390;-51
2023/04/01 03:29:19;;;;;;;;;0.00;0.00;;;;;12.25;65.83;100018.09;5017261;28;45437;-51
2023/04/01 03:31:45;;;;;;;;;0.00;0.00;;;;;12.22;65.88;100019.28;4998739;28;47338;-47
2023/04/01 03:34:10;;;;;;;;;3.00;0.00;;;;;12.22;65.41;100010.47;5017039;28;45214;-51
2023/04/01 03:36:36;;;;;;;;;0.00;0.00;;;;;12.14;65.56;99995.34;5016980;28;45430;-52
2023/04/01 03:39:01;;;;;;;;;0.00;0.00;;;;;12.19;65.76;100022.31;5018605;28;45352;-49
2023/04/01 03:41:27;;;;;;;;;0.00;0.00;;;;;12.16;66.37;100006.66;5020163;28;46206;-50
2023/04/01 03:43:53;;;;;;;;;1.33;0.00;;;;;12.17;66.70;100007.47;5020132;28;45348;-52
2023/04/01 03:46:19;;;;;;;;;0.00;0.00;;;;;12.16;65.97;100017.31;5020230;28;45325;-50
2023/04/01 03:48:45;;;;;;;;;0.00;0.00;;;;;12.13;66.27;100012.31;5020496;28;45359;-47
2023/04/01 03:51:10;;;;;;;;;2.00;0.00;;;;;12.14;66.23;100026.50;5020071;28;45949;-50
2023/04/01 03:53:35;;;;;;;;;1.67;0.00;;;;;12.07;66.64;100012.22;5020146;28;45439;-45
2023/04/01 03:56:05;;;;;;;;;0.00;0.00;;;;;12.13;65.82;100019.50;5020369;28;45439;-46
2023/04/01 03:58:31;;;;;;;;;2.67;2.00;;;;;12.10;65.93;100019.88;5020538;28;45489;-51
2023/04/01 04:00:56;;;;;;;;;0.00;0.00;;;;;12.12;65.69;100018.66;5019953;28;46025;-47
2023/04/01 04:03:21;;;;;;;;;2.00;1.00;;;;;12.13;65.41;100012.31;5020096;28;45470;-50
2023/04/01 04:05:49;;;;;;;;;1.00;0.00;;;;;12.17;65.40;100034.13;5020414;28;45351;-49
2023/04/01 04:08:15;;;;;;;;;1.33;1.00;;;;;12.17;65.02;100018.97;5002278;28;45255;-49
2023/04/01 04:10:41;;;;;;;;;0.33;0.00;;;;;12.14;65.71;100013.19;5019885;28;47198;-47
2023/04/01 04:13:07;;;;;;;;;2.00;0.00;;;;;12.10;65.36;100007.34;5019803;28;45222;-50
2023/04/01 04:15:33;;;;;;;;;4.00;0.00;;;;;12.21;65.55;100024.78;5019998;28;45270;-50
2023/04/01 04:17:58;;;;;;;;;3.33;1.00;;;;;12.18;65.42;100015.31;5019857;28;45234;-44
2023/04/01 04:20:23;;;;;;;;;0.00;0.00;;;;;12.25;65.27;100028.75;5019544;28;46159;-49
2023/04/01 04:22:49;;;;;;;;;0.00;0.00;;;;;12.26;65.43;100029.59;5019839;28;45340;-45
2023/04/01 04:25:14;;;;;;;;;0.00;0.00;;;;;12.24;65.09;100030.59;5001994;28;45354;-51
2023/04/01 04:27:40;;;;;;;;;3.00;0.00;;;;;12.24;65.48;100027.13;5019931;28;45415;-48
2023/04/01 04:30:07;;;;;;;;;0.00;0.00;;;;;12.23;65.17;100041.47;5019675;28;46180;-48
2023/04/01 04:32:32;;;;;;;;;2.00;0.00;;;;;12.23;65.98;100041.47;5019399;28;45499;-42
2023/04/01 04:34:57;;;;;;;;;0.00;0.00;;;;;12.25;65.76;100055.44;5001860;28;45362;-45
2023/04/01 04:37:23;;;;;;;;;0.00;0.00;;;;;12.23;65.53;100044.13;5019857;28;45405;-49
2023/04/01 04:39:48;;;;;;;;;1.00;0.00;;;;;12.23;65.14;100039.63;5019224;28;47017;-46
2023/04/01 04:42:13;;;;;;;;;2.00;0.00;;;;;12.18;65.14;100036.66;5019268;28;45375;-44
2023/04/01 04:44:39;;;;;;;;;0.00;0.00;;;;;12.21;65.17;100054.13;5019619;28;45280;-48
2023/04/01 04:47:04;;;;;;;;;0.00;0.00;;;;;12.21;65.20;100052.28;5019634;28;45519;-48
2023/04/01 04:49:30;;;;;;;;;5.67;1.67;;;;;12.21;65.64;100056.78;5018610;28;47241;-47
2023/04/01 04:51:55;;;;;;;;;1.00;1.00;;;;;12.23;65.30;100052.13;5000410;28;45270;-46
2023/04/01 04:54:21;;;;;;;;;0.00;0.00;;;;;12.23;65.33;100054.78;5019308;28;45404;-47
2023/04/01 04:56:46;;;;;;;;;0.67;0.00;;;;;12.25;65.01;100055.44;5019455;28;45309;-50
2023/04/01 04:59:12;;;;;;;;;0.00;0.00;;;;;12.25;65.08;100058.09;5019014;28;46182;-48
2023/04/01 05:01:38;;;;;;;;;0.00;0.00;;;;;12.27;65.21;100061.44;5018894;28;45467;-48
2023/04/01 05:04:03;;;;;;;;;0.00;0.00;;;;;12.28;64.77;100059.59;5019100;28;45403;-50
2023/04/01 05:06:31;;;;;;;;;1.00;1.00;;;;;12.24;64.82;100059.94;5019422;28;45469;-43
2023/04/01 05:08:57;;;;;;;;;1.00;0.00;;;;;12.27;64.86;100072.09;5018981;28;45423;-51
2023/04/01 05:11:22;;;;;;;;;0.00;0.00;;;;;12.28;64.34;100064.94;5018745;28;45396;-48
2023/04/01 05:13:48;;;;;;;;;4.00;0.00;;;;;12.27;64.80;100063.28;5019085;28;45393;-48
2023/04/01 05:16:19;;;;;;;;;0.67;0.67;;;;;12.30;64.36;100070.91;5019260;28;45379;-50
2023/04/01 05:18:44;;;;;;;;;0.00;0.00;;;;;12.28;64.29;100072.94;5018716;28;46918;-49
2023/04/01 05:21:12;;;;;;;;;0.00;0.00;;;;;12.26;64.01;100062.41;5018748;28;45345;-51
2023/04/01 05:23:38;;;;;;;;;1.00;0.00;;;;;12.23;64.02;100074.28;5018775;28;45329;-44
2023/04/01 05:26:10;;;;;;;;;1.33;0.00;;;;;12.20;64.20;100076.47;5019021;28;45386;-42
2023/04/01 05:28:35;;;;;;;;;2.33;0.33;;;;;12.20;63.99;100079.13;5018440;28;46992;-51
2023/04/01 05:31:02;;;;;;;;;0.00;0.00;;;;;12.19;64.17;100088.13;5018754;28;45282;-46
2023/04/01 05:33:29;;;;;;;;;0.00;0.00;;;;;12.20;64.61;100084.47;5018582;28;45301;-51
2023/04/01 05:35:56;;;;;;;;;0.00;0.00;;;;;12.18;64.58;100086.47;5018815;28;45365;-50
2023/04/01 05:38:21;;;;;;;;;0.00;0.00;;;;;12.19;64.74;100083.63;5018572;28;46268;-50
2023/04/01 05:40:47;;;;;;;;;2.33;0.00;;;;;12.18;64.55;100092.66;5018191;28;45360;-45
2023/04/01 05:43:12;;;;;;;;;1.00;0.67;;;;;12.16;64.50;100091.13;5018560;28;45365;-50
2023/04/01 05:45:38;;;;;;;;;0.67;0.00;;;;;12.19;64.43;100101.47;5018791;28;45428;-50
2023/04/01 05:48:03;;;;;;;;;0.00;0.00;;;;;12.15;64.65;100092.97;5017940;28;46198;-51
2023/04/01 05:50:29;;;;;;;;;2.00;2.00;;;;;12.17;64.27;100103.47;5018512;28;45310;-51
2023/04/01 05:52:54;;;;;;;;;0.00;0.00;;;;;12.17;64.77;100101.63;5018342;28;45445;-49
2023/04/01 05:55:20;;;;;;;;;2.00;0.00;;;;;12.18;64.73;100097.16;5018572;28;45353;-49
2023/04/01 05:57:46;;;;;;;;;0.00;0.00;;;;;12.19;65.07;100112.97;5018245;28;47112;-48
2023/04/01 06:00:12;;;;;;;;;0.67;0.00;;;;;12.17;66.66;100085.63;5018059;28;45541;-44
2023/04/01 06:02:38;;;;;;;;;0.00;0.00;;;;;12.33;65.54;100111.41;5017843;28;45397;-44
2023/04/01 06:05:18;;;;;;;;;0.00;0.00;;;;;12.40;65.12;100115.03;5018347;28;45335;-53
2023/04/01 06:07:43;;;;;;;;;3.33;1.00;;;;;12.44;64.46;100121.69;5017930;28;45351;-50
2023/04/01 06:10:19;;;;;;;;;1.00;0.00;;;;;12.44;64.21;100112.88;5018044;28;45487;-51
2023/04/01 06:13:11;;;;;;;;;0.00;0.00;;;;;12.46;64.22;100121.50;5018239;28;45224;-48
2023/04/01 06:15:53;;;;;;;;;2.33;0.00;;;;;12.48;63.74;100132.84;5018254;28;45448;-50
2023/04/01 06:18:33;;;;;;;;;1.00;0.00;;;;;12.48;63.91;100119.50;5017745;28;46409;-48
2023/04/01 06:21:19;;;;;;;;;0.00;0.00;;;;;12.47;63.86;100132.03;5017748;28;45464;-45
2023/04/01 06:23:56;;;;;;;;;0.33;0.33;;;;;12.49;64.07;100122.00;4999806;28;45449;-43
2023/04/01 06:26:39;;;;;;;;;1.00;0.00;;;;;12.53;63.90;100135.81;5017961;28;45345;-46
2023/04/01 06:29:25;;;;;;;;;0.33;0.00;;;;;12.50;63.53;100138.81;5017586;28;47105;-52
2023/04/01 06:32:20;;;;;;;;;3.00;1.00;;;;;12.53;63.34;100145.66;5017772;28;45381;-45
2023/04/01 06:35:04;;;;;;;;;1.00;1.00;;;;;12.53;62.87;100137.66;5015798;28;45260;-47
2023/04/01 06:37:44;;;;;;;;;0.00;0.00;;;;;12.54;62.84;100137.47;5017903;28;45358;-53
2023/04/01 06:40:36;;;;;;;;;2.00;0.00;;;;;12.59;62.81;100147.63;5017505;28;45411;-49
2023/04/01 06:43:08;;;;;;;;;0.00;0.00;;;;;12.13;63.71;100056.81;5017450;28;45292;-50
2023/04/01 06:46:04;;;;;;;;;0.00;0.00;;;;;12.79;62.65;100150.69;5017737;28;45195;-50
2023/04/01 06:49:05;;;;;;;;;1.00;1.00;;;;;12.84;61.95;100161.69;4999861;28;45543;-49
2023/04/01 06:51:48;;;;;;;;;1.00;1.00;;;;;12.88;62.20;100155.81;5017289;28;46357;-45
2023/04/01 06:54:20;;;;;;;;;0.00;0.00;;;;;12.91;63.53;100152.78;5017344;28;45399;-42
2023/04/01 06:56:52;;;;;;;;;0.00;0.00;;;;;12.99;62.82;100154.59;5017466;28;45247;-51
2023/04/01 06:59:20;;;;;;;;;1.00;0.00;;;;;13.03;62.02;100152.41;5017798;28;45269;-47
2023/04/01 07:01:51;;;;;;;;;0.00;0.00;;;;;13.08;62.03;100150.03;5017325;28;46265;-48
2023/04/01 07:04:34;;;;;;;;;0.00;0.00;;;;;13.20;61.46;100162.78;5017182;28;45424;-45
2023/04/01 07:07:08;;;;;;;;;0.33;0.00;;;;;13.27;62.93;100149.56;5017514;28;45310;-50
2023/04/01 07:09:39;;;;;;;;;0.33;0.00;;;;;13.56;61.67;100170.19;4999644;28;45574;-51
2023/04/01 07:12:30;;;;;;;;;1.00;0.00;;;;;13.82;60.63;100152.94;5017047;28;46180;-49
2023/04/01 07:15:11;;;;;;;;;0.67;0.67;;;;;14.02;59.65;100167.44;5008042;28;45459;-46
2023/04/01 07:17:41;;;;;;;;;0.33;0.00;;;;;14.09;58.86;100163.03;5017261;28;45355;-49
2023/04/01 07:20:32;;;;;;;;;3.00;0.00;;;;;14.12;59.67;100170.69;5017378;28;45325;-52
2023/04/01 07:23:06;;;;;;;;;0.00;0.00;;;;;14.19;58.74;100178.78;5017016;28;47274;-47
2023/04/01 07:25:43;;;;;;;;;1.67;0.00;;;;;14.21;59.32;100166.91;5016995;28;45494;-48
2023/04/01 07:28:16;;;;;;;;;0.00;0.00;;;;;14.47;58.83;100168.28;5017019;28;45402;-49
2023/04/01 07:31:01;;;;;;;;;1.00;0.00;;;;;15.22;57.03;100170.63;5016262;28;45357;-49
2023/04/01 07:33:35;;;;;;;;;3.00;0.00;;;;;15.12;56.21;100167.41;4988580;28;46409;-46
2023/04/01 07:36:39;;;;;;;;;2.00;0.33;;;;;15.26;56.14;100164.88;4996920;28;45382;-52
2023/04/01 07:39:12;;;;;;;;;3.00;0.00;;;;;15.47;55.03;100171.06;4936285;28;45325;-43
2023/04/01 07:41:51;;;;;;;;;1.33;0.00;;;;;15.41;54.26;100166.47;4936265;28;45426;-48
2023/04/01 07:44:35;;;;;;;;;3.00;1.67;;;;;15.50;55.60;100183.25;4935590;28;46446;-44
2023/04/01 07:47:12;;;;;;;;;1.00;0.00;;;;;15.47;54.85;100172.94;4919699;28;46126;-50
2023/04/01 07:49:40;;;;;;;;;2.00;0.00;;;;;15.52;54.79;100194.63;4936023;28;45466;-46
2023/04/01 07:52:38;;;;;;;;;2.00;0.00;;;;;15.49;54.37;100165.50;4936059;28;45558;-46
2023/04/01 07:55:06;;;;;;;;;1.33;1.00;;;;;15.58;53.80;100196.50;4935580;28;45481;-44
2023/04/01 07:57:40;;;;;;;;;3.67;0.00;;;;;15.63;52.99;100185.19;4935931;28;45465;-47
2023/04/01 08:00:22;;;;;;;;;0.67;0.67;;;;;15.61;54.24;100184.59;4935978;28;45496;-44
2023/04/01 08:03:24;;;;;;;;;0.67;0.00;;;;;15.63;53.62;100182.53;4936107;28;45300;-45
2023/04/01 08:06:08;;;;;;;;;4.33;1.33;;;;;15.69;53.47;100196.03;4935893;28;45395;-45
2023/04/01 08:08:50;;;;;;;;;0.00;0.00;;;;;15.46;52.78;100203.41;4935793;28;45411;-45
2023/04/01 08:11:34;;;;;;;;;0.00;0.00;;;;;15.58;53.30;100201.03;4936098;28;45562;-46
2023/04/01 08:14:18;;;;;;;;;0.67;0.00;;;;;16.32;52.47;100204.13;4990346;28;45496;-44
2023/04/01 08:17:10;;;;;;;;;0.00;0.00;;;;;16.88;50.96;100197.81;4996241;28;46224;-46
2023/04/01 08:20:01;;;;;;;;;0.33;0.33;;;;;16.94;49.97;100207.78;4996018;28;45547;-50
2023/04/01 08:22:39;;;;;;;;;0.00;0.00;;;;;16.48;50.13;100204.84;4996247;28;45381;-45
2023/04/01 08:25:09;;;;;;;;;1.67;0.00;;;;;16.18;50.33;100213.97;4997802;28;45377;-46
2023/04/01 08:27:41;;;;;;;;;0.67;0.00;;;;;16.02;51.32;100214.25;4999279;28;46199;-46
2023/04/01 08:30:21;;;;;;;;;0.00;0.00;;;;;16.21;50.94;100216.22;4999663;28;45406;-46
2023/04/01 08:32:56;;;;;;;;;0.00;0.00;;;;;16.16;51.01;100212.47;4999395;28;45368;-46
2023/04/01 08:35:47;;;;;;;;;3.00;1.00;;;;;15.89;51.38;100216.84;4999519;28;45160;-47
2023/04/01 08:38:21;;;;;;;;;0.00;0.00;;;;;15.77;51.57;100226.44;4981418;28;46363;-45
2023/04/01 08:40:58;;;;;;;;;3.00;0.00;;;;;15.70;51.83;100224.50;4998816;28;45437;-49
2023/04/01 08:43:41;;;;;;;;;0.67;0.00;;;;;15.74;51.59;100232.16;4999309;28;45424;-50
2023/04/01 08:46:48;;;;;;;;;1.00;0.00;;;;;15.64;51.30;100233.31;4999340;28;45354;-50
2023/04/01 08:49:51;;;;;;;;;0.00;0.00;;;;;15.50;51.87;100210.03;4937943;28;46028;-48
2023/04/01 08:52:41;;;;;;;;;0.00;0.00;;;;;15.57;51.47;100220.84;4938435;28;45502;-47
2023/04/01 08:55:24;;;;;;;;;0.33;0.00;;;;;15.73;51.69;100220.63;4938547;28;45279;-51
2023/04/01 08:58:48;;;;;;;;;1.00;0.00;;;;;15.77;51.24;100218.38;4938530;28;45485;-50
2023/04/01 09:01:18;;;;;;;;;0.00;0.00;;;;;16.24;50.48;100223.06;4899680;28;45712;-45
2023/04/01 09:03:57;;;;;;;;;2.00;0.00;;;;;16.51;49.66;100221.34;4900150;29;45494;-44
2023/04/01 09:06:47;;;;;;;;;1.00;0.00;;;;;16.58;49.60;100219.56;4900400;29;45579;-46
2023/04/01 09:09:38;;;;;;;;;4.00;0.00;;;;;17.23;48.47;100221.91;4900390;29;45472;-45
2023/04/01 09:12:45;;;;;;;;;0.67;0.33;;;;;17.32;48.75;100212.59;4899775;28;46123;-45
2023/04/01 09:15:29;;;;;;;;;6.33;3.00;;;;;17.91;48.14;100207.34;4899959;29;45278;-47
2023/04/01 09:18:13;;;;;;;;;1.00;0.00;;;;;18.21;46.75;100212.28;4899974;28;45412;-44
2023/04/01 09:20:47;;;;;;;;;0.00;0.00;;;;;18.73;46.37;100206.97;4900093;29;45436;-45
2023/04/01 09:23:33;;;;;;;;;1.00;0.00;;;;;19.30;45.55;100205.22;4899880;29;47188;-44
2023/04/01 09:26:31;;;;;;;;;1.00;0.00;;;;;19.23;45.26;100207.16;4918442;28;45433;-43
2023/04/01 09:29:15;;;;;;;;;1.00;1.00;;;;;18.73;46.07;100206.97;4938434;28;45403;-46
2023/04/01 09:31:51;;;;;;;;;0.00;0.00;;;;;18.28;46.52;100213.06;4938474;28;45596;-48
2023/04/01 09:34:31;;;;;;;;;0.75;0.75;;;;;18.09;46.99;100195.09;4937694;28;46034;-49
2023/04/01 09:37:15;;;;;;;;;2.00;0.75;;;;;18.52;46.04;100216.97;4949519;28;45544;-48
2023/04/01 09:39:46;;;;;;;;;0.25;0.25;;;;;18.66;45.39;100213.19;4998575;28;45587;-45
2023/04/01 09:42:41;;;;;;;;;0.00;0.00;;;;;18.09;45.87;100220.16;4998453;28;45414;-43
2023/04/01 09:45:18;;;;;;;;;0.00;0.00;;;;;18.08;46.44;100223.88;4998277;28;45661;-45
2023/04/01 09:48:14;;;;;;;;;0.50;0.00;;;;;19.23;44.80;100237.66;4998375;28;45517;-48
2023/04/01 09:51:05;;;;;;;;;0.25;0.00;;;;;19.07;44.54;100212.00;4998281;28;45436;-49
2023/04/01 09:53:32;;;;;;;;;1.00;0.00;;;;;21.03;42.01;100229.63;4998412;28;45556;-46
2023/04/01 09:56:21;;;;;;;;;0.75;0.00;;;;;20.13;41.43;100234.75;4998410;28;45562;-43
2023/04/01 09:58:49;;;;;;;;;0.50;0.50;;;;;19.22;43.34;100240.56;4998318;28;45492;-47
2023/04/01 10:01:33;;;;;;;;;0.75;0.75;;;;;18.45;44.39;100243.06;4998307;28;45406;-47
2023/04/01 10:04:36;;;;;;;;;1.00;0.00;;;;;18.98;44.36;100244.81;4998696;28;45526;-47
2023/04/01 10:07:14;;;;;;;;;0.25;0.00;;;;;19.35;41.95;100249.41;4998206;28;47027;-45
2023/04/01 10:10:04;;;;;;;;;0.00;0.00;;;;;18.56;43.76;100237.03;4998258;28;45374;-45
2023/04/01 10:13:17;;;;;;;;;1.75;0.00;;;;;18.43;43.34;100250.53;4998291;28;45325;-44
2023/04/01 10:16:22;;;;;;;;;0.75;0.75;;;;;18.09;43.96;100238.16;4938019;28;45414;-43
2023/04/01 10:19:22;;;;;;;;;0.00;0.00;;;;;19.08;42.94;100246.00;4937482;28;45428;-44
2023/04/01 10:22:15;;;;;;;;;1.00;0.00;;;;;18.77;42.12;100251.31;4937457;28;45577;-43
2023/04/01 10:24:49;;;;;;;;;0.25;0.25;;;;;19.03;41.41;100245.81;4937633;28;45455;-46
2023/04/01 10:27:37;;;;;;;;;2.00;0.00;;;;;18.65;41.72;100230.38;4937318;28;45486;-44
2023/04/01 10:30:40;;;;;;;;;0.00;0.00;;;;;18.19;42.67;100247.47;4927144;28;46576;-46
2023/04/01 10:33:51;;;;;;;;;1.25;0.00;;;;;18.68;42.47;100245.31;4937278;28;45436;-48
2023/04/01 10:36:35;;;;;;;;;1.00;1.00;;;;;20.05;40.74;100238.53;4936746;28;45296;-44
2023/04/01 10:39:32;;;;;;;;;0.00;0.00;;;;;22.05;39.18;100224.16;4937529;28;45396;-44
2023/04/01 10:42:19;;;;;;;;;3.75;1.00;;;;;22.24;38.15;100234.91;4936928;28;45950;-45
2023/04/01 10:44:45;;;;;;;;;0.00;0.00;;;;;21.50;36.51;100224.44;4937009;28;45305;-44
2023/04/01 10:47:30;;;;;;;;;2.00;0.00;;;;;20.48;38.37;100237.78;4937335;28;45499;-47
2023/04/01 10:50:38;;;;;;;;;1.50;0.00;;;;;19.83;38.95;100234.59;4972118;28;45517;-43
2023/04/01 10:53:49;;;;;;;;;1.00;1.00;;;;;19.28;40.68;100231.59;4997631;28;46880;-45
2023/04/01 10:56:33;;;;;;;;;0.00;0.00;;;;;19.20;40.06;100238.91;4997778;28;45320;-43
2023/04/01 10:59:17;;;;;;;;;1.00;0.00;;;;;19.07;40.81;100236.28;4997575;28;45361;-45
2023/04/01 11:02:20;;;;;;;;;0.00;0.00;;;;;18.91;41.10;100234.88;4997835;28;45374;-43
2023/04/01 11:04:57;;;;;;;;;1.25;0.50;;;;;18.80;40.85;100232.03;4997297;28;46247;-42
2023/04/01 11:08:00;;;;;;;;;0.00;0.00;;;;;23.63;36.52;100223.91;4997380;28;45444;-44
2023/04/01 11:10:50;;;;;;;;;0.80;0.00;;;;;26.62;30.69;100216.72;4995848;28;45587;-43
2023/04/01 11:13:21;;;;;;;;;0.00;0.00;;;;;27.83;28.56;100200.09;4997433;28;45326;-42
2023/04/01 11:16:04;;;;;;;;;2.00;0.80;;;;;27.45;27.35;100158.53;4996909;28;45444;-43
2023/04/01 11:19:07;;;;;;;;;5.60;0.00;;;;;25.39;30.72;100204.06;4993349;28;45330;-45
2023/04/01 11:21:35;;;;;;;;;0.00;0.00;;;;;24.44;31.45;100205.41;4994289;28;45499;-44
2023/04/01 11:24:09;;;;;;;;;0.00;0.00;;;;;24.97;31.78;100206.59;4994447;28;45505;-47
2023/04/01 11:26:40;;;;;;;;;0.00;0.00;;;;;24.13;31.58;100210.34;4994035;28;46051;-47
2023/04/01 11:29:28;;;;;;;;;1.20;0.00;;;;;23.29;33.31;100207.56;4994615;28;45550;-45
2023/04/01 11:32:04;;;;;;;;;1.00;1.00;;;;;23.92;31.76;100221.97;4933986;28;45497;-44
2023/04/01 11:34:41;;;;;;;;;6.00;0.00;;;;;23.24;32.31;100209.38;4934352;28;45458;-47
2023/04/01 11:37:36;;;;;;;;;0.80;0.80;;;;;22.41;33.35;100214.16;4933989;28;46281;-50
2023/04/01 11:40:11;;;;;;;;;3.40;1.40;;;;;21.58;35.29;100213.28;4934533;28;45386;-48
2023/04/01 11:43:01;;;;;;;;;0.60;0.00;;;;;20.79;36.07;100206.22;4933687;28;45521;-47
2023/04/01 11:45:36;;;;;;;;;0.00;0.00;;;;;22.24;35.80;100221.38;4934044;28;45438;-46
2023/04/01 11:48:32;;;;;;;;;0.00;0.00;;;;;22.62;34.28;100220.84;4934105;28;45573;-49
2023/04/01 11:51:24;;;;;;;;;0.00;0.00;;;;;21.87;34.69;100232.41;4933855;28;45605;-46
2023/04/01 11:54:40;;;;;;;;;0.00;0.00;;;;;21.15;35.54;100233.22;4934139;28;45591;-46
2023/04/01 11:57:35;;;;;;;;;1.00;0.00;;;;;20.30;36.61;100237.69;4858333;29;45408;-45
2023/04/01 12:00:12;;;;;;;;;0.75;0.00;;;;;20.25;37.46;100237.53;4855997;29;46216;-44
2023/04/01 12:03:15;;;;;;;;;3.00;0.00;;;;;21.73;36.16;100233.66;4861311;29;45464;-43
2023/04/01 12:05:58;;;;;;;;;3.60;1.00;;;;;22.19;34.69;100226.66;4861428;29;45493;-45
2023/04/01 12:08:43;;;;;;;;;2.50;0.00;;;;;22.08;34.37;100229.13;4872017;29;45530;-45